Hachinohemaru — JE3089 — position and weather

sailwx.info

Track history (hours):
 
Tides and Currents Weather Stations Pressure Air Temp Water Temp Dewpoint Dewpoint Depression Visibility Wind Speed Wind Dir Waves Ship Positions

Hachinohemaru

Last reported at 2015-May-28 12:10 UTC. Time now 2015-May-28 14:14 UTC.
Position N 35°55' E 140°41'.

Length 168 m; draft 9.4 m.

Type: Cargo ship. MMSI: 431700018.

Date/timePositionNaut miles runAvg speedWind from/ knotsBaromVisibWave heightAir tempDewpointWater temp
2015-May-28 12:10N 35°55' E 140°41'3613.3
2015-May-28 09:25N 36°30' E 140°57'  
2015-May-25 23:33N 36°46' E 141°05'1413.8
2015-May-25 22:33N 36°33' E 140°58'1414.0
2015-May-25 21:33N 36°20' E 140°52'1413.9
2015-May-25 20:32N 36°07' E 140°47'1211.2
2015-May-25 19:31N 35°56' E 140°42'1 0.2
2015-May-25 17:04N 35°56' E 140°41'0 0.0
2015-May-25 16:04N 35°56' E 140°41'0 0.0
2015-May-25 15:10N 35°56' E 140°41'0 0.0
2015-May-25 12:04N 35°56' E 140°41'0 0.0
2015-May-25 11:16N 35°56' E 140°41'2 0.5
2015-May-25 07:31N 35°57' E 140°42'1612.4
2015-May-25 06:13N 36°13' E 140°49'2612.3
2015-May-25 04:09N 36°37' E 140°60'  
2015-May-22 20:33N 36°43' E 141°02'4414.4
2015-May-22 17:30N 36°02' E 140°44'7 0.7
2015-May-22 07:31N 35°56' E 140°41'0 0.0
2015-May-22 06:33N 35°56' E 140°41'0 0.1
2015-May-22 04:25N 35°55' E 140°41'4 5.2
2015-May-22 03:33N 35°59' E 140°45'1614.0
2015-May-22 02:23N 35°45' E 140°57'1314.2
2015-May-22 01:30N 35°33' E 140°52'1515.9
2015-May-22 00:32N 35°21' E 140°41'3314.7
2015-May-21 22:17N 34°56' E 140°14'1013.6
2015-May-21 21:31N 34°50' E 140°03'1413.7
2015-May-21 20:28N 34°44' E 139°48'7114.0
2015-May-21 15:24N 34°23' E 138°25'  
Track history (hours):
 
Tides and Currents Weather Stations Pressure Air Temp Water Temp Dewpoint Dewpoint Depression Visibility Wind Speed Wind Dir Waves Ship Positions

Hachinohemaru

Last reported at 2015-May-28 12:10 UTC. Time now 2015-May-28 14:14 UTC.
Position N 35°55' E 140°41'.

Length 168 m; draft 9.4 m.

Type: Cargo ship. MMSI: 431700018.

Date/timePositionNaut miles runAvg speedWind from/ knotsBaromVisibWave heightAir tempDewpointWater temp
2015-May-28 12:10N 35°55' E 140°41'3613.3
2015-May-28 09:25N 36°30' E 140°57'  
2015-May-25 23:33N 36°46' E 141°05'1413.8
2015-May-25 22:33N 36°33' E 140°58'1414.0
2015-May-25 21:33N 36°20' E 140°52'1413.9
2015-May-25 20:32N 36°07' E 140°47'1211.2
2015-May-25 19:31N 35°56' E 140°42'1 0.2
2015-May-25 17:04N 35°56' E 140°41'0 0.0
2015-May-25 16:04N 35°56' E 140°41'0 0.0
2015-May-25 15:10N 35°56' E 140°41'0 0.0
2015-May-25 12:04N 35°56' E 140°41'0 0.0
2015-May-25 11:16N 35°56' E 140°41'2 0.5
2015-May-25 07:31N 35°57' E 140°42'1612.4
2015-May-25 06:13N 36°13' E 140°49'2612.3
2015-May-25 04:09N 36°37' E 140°60'  
2015-May-22 20:33N 36°43' E 141°02'4414.4
2015-May-22 17:30N 36°02' E 140°44'7 0.7
2015-May-22 07:31N 35°56' E 140°41'0 0.0
2015-May-22 06:33N 35°56' E 140°41'0 0.1
2015-May-22 04:25N 35°55' E 140°41'4 5.2
2015-May-22 03:33N 35°59' E 140°45'1614.0
2015-May-22 02:23N 35°45' E 140°57'1314.2
2015-May-22 01:30N 35°33' E 140°52'1515.9
2015-May-22 00:32N 35°21' E 140°41'3314.7
2015-May-21 22:17N 34°56' E 140°14'1013.6
2015-May-21 21:31N 34°50' E 140°03'1413.7
2015-May-21 20:28N 34°44' E 139°48'7114.0
2015-May-21 15:24N 34°23' E 138°25'  

Dump ship's entire track history